Time;durP1;ratioP1;P1;durP2;ratioP2;P2;SDS_P1;SDS_P2;PMS_P1;PMS_P2;Temp;Humidity;BMP_temperature;BMP_pressure;BME280_temperature;BME280_humidity;BME280_pressure;Samples;Min_cycle;Max_cycle;Signal;HPM_P1;HPM_P2
2023/01/23 05:01:24;;;;;;;14.52;10.13;;;3.00;99.90;;;;;;5438973;23;20061;-74
2023/01/23 05:03:58;;;;;;;13.60;9.93;;;3.40;99.90;;;;;;4857218;29;20124;-74
2023/01/23 05:06:25;;;;;;;11.93;9.30;;;3.00;99.90;;;;;;4871615;29;20041;-73
2023/01/23 05:08:55;;;;;;;13.65;10.00;;;3.00;99.90;;;;;;4871940;29;20053;-73
2023/01/23 05:11:28;;;;;;;11.73;9.43;;;2.90;99.90;;;;;;4866422;29;20832;-72
2023/01/23 05:13:56;;;;;;;11.95;9.60;;;3.00;99.90;;;;;;4865568;29;20056;-74
2023/01/23 05:16:23;;;;;;;14.30;10.45;;;3.00;99.90;;;;;;4823798;29;20050;-75
2023/01/23 05:19:16;;;;;;;14.98;9.73;;;2.90;99.90;;;;;;4845366;29;20213;-74
2023/01/23 05:21:47;;;;;;;11.18;8.75;;;3.00;99.90;;;;;;4852122;29;20509;-75
2023/01/23 05:24:17;;;;;;;11.80;9.38;;;3.00;99.90;;;;;;4875534;29;20154;-75
2023/01/23 05:26:48;;;;;;;11.82;9.30;;;2.90;99.90;;;;;;4864066;29;20081;-74
2023/01/23 05:29:17;;;;;;;13.02;9.45;;;2.90;99.90;;;;;;4857760;29;20049;-73
2023/01/23 05:31:52;;;;;;;13.52;9.50;;;3.10;99.90;;;;;;4853876;29;20144;-74
2023/01/23 05:34:38;;;;;;;11.85;9.32;;;3.10;99.90;;;;;;4851586;29;20140;-74
2023/01/23 05:37:24;;;;;;;13.98;10.15;;;3.10;99.90;;;;;;4843315;29;20053;-75
2023/01/23 05:39:55;;;;;;;12.02;9.02;;;3.70;99.90;;;;;;4827457;29;20594;-74
2023/01/23 05:42:24;;;;;;;12.77;9.63;;;3.00;99.90;;;;;;4843027;29;20057;-74
2023/01/23 05:45:15;;;;;;;13.57;10.18;;;3.00;99.90;;;;;;4856540;29;20107;-74
2023/01/23 05:47:44;;;;;;;12.60;9.60;;;3.10;99.90;;;;;;4841911;29;20049;-75
2023/01/23 05:50:18;;;;;;;13.30;9.63;;;3.00;99.90;;;;;;4840818;29;20617;-74
2023/01/23 05:52:46;;;;;;;13.52;9.98;;;3.00;99.90;;;;;;4838597;29;20061;-75
2023/01/23 05:55:13;;;;;;;15.52;10.20;;;3.10;99.90;;;;;;4851709;29;20056;-74
2023/01/23 05:57:43;;;;;;;;;;;3.20;99.90;;;;;;4848144;29;20072;-74
2023/01/23 06:00:35;;;;;;;11.60;9.82;;;3.10;99.90;;;;;;4854829;29;19931;-74
2023/01/23 06:03:34;;;;;;;;;;;3.40;99.90;;;;;;4857671;29;20060;-73
2023/01/23 06:06:18;;;;;;;13.43;9.27;;;3.00;99.90;;;;;;4845137;29;20010;-74
2023/01/23 06:08:46;;;;;;;11.77;9.25;;;3.90;99.90;;;;;;4840068;29;20037;-74
2023/01/23 06:11:18;;;;;;;14.13;9.98;;;3.50;99.90;;;;;;4834781;29;20663;-74
2023/01/23 06:13:49;;;;;;;13.20;9.48;;;2.90;99.90;;;;;;4846239;29;20082;-74
2023/01/23 06:16:19;;;;;;;;;;;2.80;99.90;;;;;;4870922;29;20647;-75
2023/01/23 06:18:46;;;;;;;13.18;8.95;;;2.80;99.90;;;;;;4840590;29;19936;-74
2023/01/23 06:21:17;;;;;;;12.73;8.80;;;2.70;99.90;;;;;;4831299;29;20045;-74
2023/01/23 06:23:44;;;;;;;12.27;9.60;;;2.70;99.90;;;;;;4874674;29;20136;-74
2023/01/23 06:26:12;;;;;;;11.82;8.75;;;2.60;99.90;;;;;;4859117;29;20057;-74
2023/01/23 06:28:40;;;;;;;12.10;8.48;;;2.50;99.90;;;;;;4834705;29;20171;-74
2023/01/23 06:31:09;;;;;;;12.25;8.82;;;2.40;99.90;;;;;;4845469;29;20055;-74
2023/01/23 06:33:53;;;;;;;12.55;9.15;;;2.30;99.90;;;;;;4860818;29;20050;-74
2023/01/23 06:36:25;;;;;;;12.60;9.13;;;2.30;99.90;;;;;;4841160;29;20062;-74
2023/01/23 06:38:54;;;;;;;12.97;9.23;;;2.20;99.90;;;;;;4855654;29;20544;-75
2023/01/23 06:41:27;;;;;;;11.98;8.95;;;2.20;99.90;;;;;;4862550;29;20052;-74
2023/01/23 06:44:00;;;;;;;11.55;8.73;;;2.70;99.90;;;;;;4859625;29;20056;-74
2023/01/23 06:46:27;;;;;;;10.93;8.65;;;2.20;99.90;;;;;;4859061;29;20057;-74
2023/01/23 06:48:55;;;;;;;12.13;9.35;;;2.20;99.90;;;;;;4858839;29;20109;-74
2023/01/23 06:51:22;;;;;;;14.43;9.85;;;2.10;99.90;;;;;;4870872;29;20057;-74
2023/01/23 06:53:50;;;;;;;12.48;9.55;;;2.00;99.90;;;;;;4840128;29;20060;-74
2023/01/23 06:56:17;;;;;;;13.85;10.50;;;2.10;99.90;;;;;;4855848;29;20113;-74
2023/01/23 06:58:45;;;;;;;13.88;10.40;;;2.00;99.90;;;;;;4841876;29;20054;-75
2023/01/23 07:01:23;;;;;;;14.05;10.30;;;1.90;99.90;;;;;;4847983;29;20057;-74
2023/01/23 07:04:12;;;;;;;13.82;10.20;;;2.00;99.90;;;;;;4844041;29;20617;-75
2023/01/23 07:06:41;;;;;;;12.65;9.00;;;2.00;99.90;;;;;;4840386;29;20045;-74
2023/01/23 07:09:09;;;;;;;13.52;10.00;;;1.80;99.90;;;;;;4840446;29;20060;-75
2023/01/23 07:11:37;;;;;;;15.48;11.23;;;1.80;99.90;;;;;;4848010;29;20049;-74
2023/01/23 07:14:05;;;;;;;14.55;10.40;;;1.90;99.90;;;;;;4862671;29;20053;-74
2023/01/23 07:16:34;;;;;;;15.05;11.30;;;1.80;99.90;;;;;;4825848;29;20061;-74
2023/01/23 07:19:02;;;;;;;15.65;11.30;;;1.80;99.90;;;;;;4840329;29;20841;-74
2023/01/23 07:21:32;;;;;;;;;;;1.90;99.90;;;;;;4846341;29;20056;-74
2023/01/23 07:23:59;;;;;;;13.95;9.45;;;1.80;99.90;;;;;;4841813;29;19934;-74
2023/01/23 07:26:29;;;;;;;14.63;10.45;;;2.00;99.90;;;;;;4857139;29;20522;-73
2023/01/23 07:28:56;;;;;;;14.82;10.27;;;3.60;99.90;;;;;;4836278;29;20051;-74
2023/01/23 07:31:22;;;;;;;15.40;10.98;;;2.10;99.90;;;;;;4855442;29;20063;-74
2023/01/23 07:33:50;;;;;;;14.20;10.95;;;2.10;99.90;;;;;;4851456;29;20053;-74
2023/01/23 07:36:17;;;;;;;17.52;10.63;;;2.10;99.90;;;;;;4865046;29;20061;-73
2023/01/23 07:38:44;;;;;;;12.85;9.85;;;2.20;99.90;;;;;;4855977;29;20132;-74
2023/01/23 07:41:14;;;;;;;14.65;10.25;;;2.20;99.90;;;;;;4848385;29;20186;-74
2023/01/23 07:43:41;;;;;;;13.68;9.57;;;2.40;99.90;;;;;;4859353;29;20046;-74
2023/01/23 07:46:08;;;;;;;16.80;10.45;;;2.50;99.90;;;;;;4846207;29;20727;-73
2023/01/23 07:48:36;;;;;;;13.75;9.90;;;2.50;99.90;;;;;;4846040;29;20054;-74
2023/01/23 07:51:03;;;;;;;16.38;11.38;;;2.50;99.90;;;;;;4865327;29;20106;-74
2023/01/23 07:53:30;;;;;;;13.90;10.63;;;2.60;99.90;;;;;;4866422;29;20057;-74
2023/01/23 07:55:58;;;;;;;14.32;10.48;;;2.50;99.90;;;;;;4874646;29;20049;-74
2023/01/23 07:58:25;;;;;;;14.93;10.18;;;2.50;99.90;;;;;;4845799;29;20073;-74
2023/01/23 08:00:52;;;;;;;14.32;9.77;;;2.60;99.90;;;;;;4865356;29;20064;-74
2023/01/23 08:03:19;;;;;;;15.93;11.43;;;2.60;99.90;;;;;;4852490;29;20045;-74
2023/01/23 08:05:48;;;;;;;12.95;9.90;;;2.70;99.90;;;;;;4863483;29;20088;-74
2023/01/23 08:08:15;;;;;;;14.82;11.52;;;2.70;99.90;;;;;;4849515;29;20059;-74
2023/01/23 08:10:42;;;;;;;12.73;9.30;;;2.80;99.90;;;;;;4862745;29;20033;-74
2023/01/23 08:13:10;;;;;;;14.40;9.85;;;4.00;99.90;;;;;;4864863;29;20078;-74
2023/01/23 08:15:37;;;;;;;12.07;9.38;;;2.90;99.90;;;;;;4849377;29;20053;-74
2023/01/23 08:18:04;;;;;;;13.57;10.73;;;2.90;99.90;;;;;;4863616;29;20045;-74
2023/01/23 08:20:31;;;;;;;13.35;9.60;;;2.90;99.90;;;;;;4863928;29;20057;-74
2023/01/23 08:22:59;;;;;;;13.98;10.45;;;3.00;99.90;;;;;;4843681;29;20048;-72
2023/01/23 08:25:26;;;;;;;15.60;11.60;;;4.30;99.90;;;;;;4839269;29;20072;-72
2023/01/23 08:27:53;;;;;;;14.25;10.68;;;3.10;99.90;;;;;;4854623;29;20046;-74
2023/01/23 08:30:20;;;;;;;14.95;9.80;;;3.10;99.90;;;;;;4861107;29;20639;-73
2023/01/23 08:32:48;;;;;;;16.20;11.15;;;3.10;99.90;;;;;;4865106;29;20057;-74
2023/01/23 08:35:15;;;;;;;15.88;11.50;;;3.10;99.90;;;;;;4854837;29;20053;-74
2023/01/23 08:37:44;;;;;;;15.80;11.20;;;3.10;99.90;;;;;;4887979;29;20055;-74
2023/01/23 08:40:12;;;;;;;16.15;11.95;;;3.30;99.90;;;;;;4873794;29;20055;-74
2023/01/23 08:42:38;;;;;;;14.38;11.23;;;3.30;99.90;;;;;;4867574;29;20041;-73
2023/01/23 08:45:06;;;;;;;14.73;11.20;;;4.60;99.90;;;;;;4867393;29;20470;-73
2023/01/23 08:47:35;;;;;;;15.13;11.15;;;3.40;99.90;;;;;;4865722;29;20052;-74
2023/01/23 08:50:04;;;;;;;16.65;12.32;;;4.60;99.90;;;;;;4851105;29;20057;-74
2023/01/23 08:52:33;;;;;;;20.75;13.63;;;3.60;99.90;;;;;;4865177;29;20041;-74
2023/01/23 08:55:00;;;;;;;18.37;12.77;;;3.70;99.90;;;;;;4867314;29;20040;-74
2023/01/23 08:57:30;;;;;;;19.88;12.70;;;3.70;99.90;;;;;;4867470;29;20049;-75
2023/01/23 08:59:57;;;;;;;17.77;12.52;;;3.70;99.90;;;;;;4862941;29;20566;-75
2023/01/23 09:02:24;;;;;;;21.10;14.57;;;3.70;99.90;;;;;;4867987;29;20627;-74
2023/01/23 09:04:51;;;;;;;21.25;13.60;;;4.80;99.90;;;;;;4866974;29;20041;-76
2023/01/23 09:07:18;;;;;;;19.95;13.57;;;3.80;99.90;;;;;;4860171;29;20707;-80
2023/01/23 09:09:45;;;;;;;17.80;12.52;;;3.90;99.90;;;;;;4859435;29;20050;-76
2023/01/23 09:12:12;;;;;;;19.55;13.27;;;4.10;99.90;;;;;;4869679;29;20069;-72
2023/01/23 09:14:39;;;;;;;21.10;14.30;;;3.90;99.90;;;;;;4860759;29;20569;-75
2023/01/23 09:17:05;;;;;;;19.23;13.07;;;4.60;99.90;;;;;;4846474;29;20078;-74
2023/01/23 09:19:32;;;;;;;19.75;13.55;;;3.90;99.90;;;;;;4870241;29;20057;-74
2023/01/23 09:21:59;;;;;;;18.98;13.30;;;4.00;99.90;;;;;;4850115;29;20139;-74
2023/01/23 09:24:26;;;;;;;18.65;13.40;;;5.10;99.90;;;;;;4875700;29;20421;-73
2023/01/23 09:26:53;;;;;;;15.93;12.15;;;3.90;99.90;;;;;;4867960;29;20543;-72
2023/01/23 09:29:20;;;;;;;16.05;12.00;;;3.90;99.90;;;;;;4857059;29;20041;-73
2023/01/23 09:31:47;;;;;;;22.55;14.68;;;3.90;99.90;;;;;;4864754;29;20045;-75
2023/01/23 09:34:14;;;;;;;17.65;12.30;;;3.80;99.90;;;;;;4859138;29;20124;-72
2023/01/23 09:36:43;;;;;;;17.83;12.20;;;3.90;99.90;;;;;;4842036;29;20058;-72
2023/01/23 09:39:10;;;;;;;17.27;12.80;;;3.90;99.90;;;;;;4857666;29;20050;-74
2023/01/23 09:41:39;;;;;;;17.48;12.13;;;1.80;99.90;;;;;;4857951;29;20061;-71
2023/01/23 09:44:32;;;;;;;19.17;12.15;;;3.90;99.90;;;;;;4857272;29;20046;-74
2023/01/23 09:47:21;;;;;;;15.82;11.45;;;3.80;99.90;;;;;;4854994;29;20054;-73
2023/01/23 09:49:59;;;;;;;14.45;10.93;;;3.90;99.90;;;;;;4856961;29;20045;-74
2023/01/23 09:52:48;;;;;;;13.35;9.98;;;4.00;99.90;;;;;;4867590;29;20056;-73
2023/01/23 09:55:21;;;;;;;17.95;11.68;;;3.90;99.90;;;;;;4870179;29;20530;-73
2023/01/23 09:57:56;;;;;;;14.35;10.20;;;4.10;99.90;;;;;;4838313;29;20165;-73
2023/01/23 10:00:30;;;;;;;15.00;10.63;;;4.20;99.90;;;;;;4822852;29;20134;-74
2023/01/23 10:03:00;;;;;;;14.27;9.48;;;4.10;99.90;;;;;;4847143;29;20124;-73
2023/01/23 10:05:38;;;;;;;15.45;10.95;;;4.10;99.90;;;;;;4851175;29;20511;-74
2023/01/23 10:08:30;;;;;;;14.65;10.60;;;4.20;99.90;;;;;;4862605;29;20049;-73
2023/01/23 10:11:07;;;;;;;13.07;10.43;;;4.20;99.90;;;;;;4858562;29;20077;-74
2023/01/23 10:13:37;;;;;;;15.25;10.68;;;4.20;99.90;;;;;;4856254;29;20053;-74
2023/01/23 10:16:15;;;;;;;15.25;10.95;;;4.30;99.80;;;;;;4857503;29;20053;-74
2023/01/23 10:18:53;;;;;;;14.15;10.55;;;4.30;99.70;;;;;;4856427;29;20077;-73
2023/01/23 10:22:19;;;;;;;15.38;10.60;;;4.30;99.60;;;;;;4844070;29;20041;-73
2023/01/23 10:24:55;;;;;;;13.70;10.00;;;4.70;99.30;;;;;;4821826;29;20084;-73
2023/01/23 10:27:42;;;;;;;13.38;9.70;;;4.90;99.80;;;;;;4821318;29;20077;-74
2023/01/23 10:30:28;;;;;;;12.23;9.75;;;4.30;99.20;;;;;;4855989;29;20057;-73
2023/01/23 10:33:17;;;;;;;12.15;9.15;;;4.30;99.10;;;;;;4844526;29;20064;-73
2023/01/23 10:36:15;;;;;;;12.90;9.23;;;4.20;99.20;;;;;;4856073;29;20041;-73
2023/01/23 10:38:59;;;;;;;12.27;9.02;;;4.30;99.50;;;;;;4823292;29;20129;-73
2023/01/23 10:41:26;;;;;;;12.63;9.15;;;4.20;99.40;;;;;;4829266;29;20596;-73
2023/01/23 10:43:56;;;;;;;13.52;9.63;;;4.30;99.30;;;;;;4875025;29;20053;-73
2023/01/23 10:46:34;;;;;;;12.52;10.77;;;5.10;99.10;;;;;;4874707;29;20120;-73
2023/01/23 10:49:06;;;;;;;14.18;9.73;;;4.30;99.10;;;;;;4874452;29;20387;-73
2023/01/23 10:51:45;;;;;;;13.55;9.98;;;4.20;99.10;;;;;;4855499;29;20041;-73
2023/01/23 10:54:21;;;;;;;14.23;10.40;;;4.10;98.70;;;;;;4840847;29;20053;-73
2023/01/23 10:57:00;;;;;;;13.23;9.93;;;4.20;99.20;;;;;;4827964;29;20709;-74
2023/01/23 10:59:29;;;;;;;13.13;10.47;;;4.30;99.30;;;;;;4867687;29;20082;-73
2023/01/23 11:01:57;;;;;;;14.88;10.30;;;4.60;99.50;;;;;;4849792;29;20787;-76
2023/01/23 11:04:27;;;;;;;14.00;9.52;;;4.30;99.00;;;;;;4840213;29;20093;-72
2023/01/23 11:07:16;;;;;;;13.05;9.23;;;4.40;98.60;;;;;;4863013;29;20052;-72
2023/01/23 11:09:52;;;;;;;12.68;9.60;;;4.50;98.70;;;;;;4846072;29;20141;-72
2023/01/23 11:12:21;;;;;;;12.10;9.30;;;4.50;98.60;;;;;;4864728;29;20411;-73
2023/01/23 11:14:48;;;;;;;14.18;9.60;;;4.50;99.00;;;;;;4862542;29;20064;-72
2023/01/23 11:17:23;;;;;;;14.75;10.45;;;6.10;99.30;;;;;;4864909;29;20053;-72
2023/01/23 11:19:53;;;;;;;11.98;9.40;;;5.60;99.10;;;;;;4847441;29;20527;-72
2023/01/23 11:22:36;;;;;;;14.25;10.35;;;4.50;98.40;;;;;;4865027;29;20101;-72
2023/01/23 11:25:30;;;;;;;15.90;10.63;;;4.60;98.80;;;;;;4861019;29;20110;-70
2023/01/23 11:28:11;;;;;;;13.05;9.65;;;4.60;98.40;;;;;;4863125;29;20045;-73
2023/01/23 11:30:46;;;;;;;14.23;11.13;;;4.70;98.50;;;;;;4834256;29;20063;-73
2023/01/23 11:33:24;;;;;;;14.50;10.77;;;5.00;98.90;;;;;;4849561;29;20052;-73
2023/01/23 11:36:16;;;;;;;15.07;10.60;;;4.70;98.80;;;;;;4861127;29;20439;-73
2023/01/23 11:39:15;;;;;;;13.38;9.95;;;4.60;98.70;;;;;;4853964;29;20160;-73
2023/01/23 11:41:43;;;;;;;12.57;9.50;;;4.70;98.70;;;;;;4842780;29;20046;-73
2023/01/23 11:44:19;;;;;;;14.60;10.38;;;5.70;99.00;;;;;;4873436;29;20501;-74
2023/01/23 11:47:03;;;;;;;15.38;11.23;;;4.70;98.90;;;;;;4873553;29;20044;-73
2023/01/23 11:49:48;;;;;;;15.23;9.50;;;4.80;98.80;;;;;;4847893;29;20101;-72
2023/01/23 11:52:41;;;;;;;16.00;11.02;;;4.80;98.70;;;;;;4845606;29;20498;-73
2023/01/23 11:55:25;;;;;;;16.77;11.10;;;4.80;98.70;;;;;;4874789;29;20414;-73
2023/01/23 11:58:04;;;;;;;13.18;10.65;;;4.80;98.70;;;;;;4873389;29;20068;-73
2023/01/23 12:00:37;;;;;;;13.20;10.05;;;4.80;98.60;;;;;;4857859;29;20053;-74
2023/01/23 12:03:27;;;;;;;14.98;10.00;;;4.80;98.50;;;;;;4855411;29;20085;-73
2023/01/23 12:06:15;;;;;;;13.52;9.82;;;4.90;98.70;;;;;;4827814;29;20518;-73
2023/01/23 12:09:04;;;;;;;11.98;9.40;;;5.00;98.50;;;;;;4849310;29;20064;-72
2023/01/23 12:11:55;;;;;;;13.20;10.45;;;6.30;98.80;;;;;;4841931;29;20414;-73
2023/01/23 12:14:41;;;;;;;13.13;9.90;;;5.00;98.20;;;;;;4859747;29;20057;-73
2023/01/23 12:17:19;;;;;;;12.13;8.80;;;4.90;98.20;;;;;;4857046;29;20053;-73
2023/01/23 12:20:22;;;;;;;16.05;11.07;;;4.80;98.10;;;;;;4859440;29;20148;-73
2023/01/23 12:22:54;;;;;;;12.35;9.23;;;4.90;98.60;;;;;;4870931;29;20049;-73
2023/01/23 12:25:24;;;;;;;12.10;9.00;;;5.50;98.50;;;;;;4876969;29;20046;-73
2023/01/23 12:27:57;;;;;;;;;;;4.80;98.30;;;;;;4877270;29;20049;-73
2023/01/23 12:31:02;;;;;;;13.32;10.20;;;4.90;98.60;;;;;;4861320;29;20390;-73
2023/01/23 12:34:01;;;;;;;13.43;9.43;;;4.70;98.60;;;;;;4806670;29;20070;-72
2023/01/23 12:36:41;;;;;;;13.68;10.57;;;4.60;98.80;;;;;;4813494;29;20064;-73
2023/01/23 12:40:00;;;;;;;14.73;10.35;;;4.80;98.90;;;;;;4822701;29;20128;-73
2023/01/23 12:42:44;;;;;;;13.60;10.07;;;5.90;99.00;;;;;;4829748;29;20061;-72
2023/01/23 12:45:17;;;;;;;14.32;10.32;;;4.80;98.80;;;;;;4829046;29;20563;-73
2023/01/23 12:48:11;;;;;;;13.32;10.20;;;4.90;99.10;;;;;;4795271;29;20225;-72
2023/01/23 12:50:45;;;;;;;11.82;10.10;;;4.90;98.80;;;;;;4813921;29;20142;-73
2023/01/23 12:53:15;;;;;;;12.55;9.10;;;5.00;98.80;;;;;;4819512;29;20599;-74
2023/01/23 12:55:56;;;;;;;14.02;10.18;;;5.00;98.50;;;;;;4821347;29;20423;-72
2023/01/23 12:58:26;;;;;;;13.32;9.52;;;5.00;98.50;;;;;;4814783;29;20177;-73
2023/01/23 13:00:59;;;;;;;13.75;9.82;;;5.20;98.20;;;;;;4822104;29;20192;-72
2023/01/23 13:03:53;;;;;;;13.15;10.15;;;5.10;98.30;;;;;;4826394;29;20507;-72
2023/01/23 13:06:40;;;;;;;14.40;9.73;;;5.00;98.50;;;;;;4804470;29;20054;-72
2023/01/23 13:09:36;;;;;;;13.25;9.60;;;5.10;98.50;;;;;;4819354;29;20043;-72
2023/01/23 13:12:17;;;;;;;13.48;10.38;;;5.10;98.50;;;;;;4868940;29;20507;-72
2023/01/23 13:14:53;;;;;;;10.20;8.35;;;5.40;98.20;;;;;;4848299;29;20151;-72
2023/01/23 13:17:50;;;;;;;10.80;8.70;;;5.00;98.30;;;;;;4865712;29;20929;-73
2023/01/23 13:23:31;;;;;;;11.93;9.48;;;5.10;98.20;;;;;;4867915;29;20038;-73
2023/01/23 13:26:15;;;;;;;12.93;10.73;;;5.10;98.60;;;;;;4863419;29;20037;-73
2023/01/23 13:29:00;;;;;;;16.63;11.95;;;5.10;98.30;;;;;;4867834;29;20080;-73
2023/01/23 13:31:48;;;;;;;12.98;9.23;;;5.00;98.40;;;;;;4858481;29;20046;-73
2023/01/23 13:34:15;;;;;;;12.65;10.10;;;5.10;98.30;;;;;;4859641;29;20056;-73
2023/01/23 13:36:47;;;;;;;11.27;8.40;;;5.10;98.30;;;;;;4864689;29;20927;-73
2023/01/23 13:39:22;;;;;;;11.02;9.25;;;5.10;98.40;;;;;;4852901;29;20045;-73
2023/01/23 13:42:14;;;;;;;12.77;9.13;;;5.00;98.60;;;;;;4861981;29;20048;-73
2023/01/23 13:45:14;;;;;;;11.32;8.63;;;5.00;98.30;;;;;;4866014;29;20049;-73
2023/01/23 13:51:24;;;;;;;11.80;9.60;;;5.00;98.70;;;;;;4798766;29;20050;-73
2023/01/23 13:57:23;;;;;;;14.32;10.55;;;5.00;98.50;;;;;;4712023;30;20057;-72
2023/01/23 14:00:04;;;;;;;13.32;10.15;;;6.20;98.90;;;;;;4667874;30;20077;-73
2023/01/23 14:06:14;;;;;;;14.80;10.05;;;4.90;99.00;;;;;;4590210;31;20156;-72
2023/01/23 14:08:57;;;;;;;14.52;9.63;;;5.00;98.90;;;;;;4568061;31;20168;-73
2023/01/23 14:11:38;;;;;;;13.82;10.63;;;5.90;99.20;;;;;;4609018;31;20123;-73
2023/01/23 14:17:20;;;;;;;15.45;10.63;;;5.00;98.90;;;;;;4609185;31;20519;-73
2023/01/23 14:20:05;;;;;;;14.65;10.52;;;4.90;99.00;;;;;;4626062;31;20750;-73
2023/01/23 14:22:46;;;;;;;12.63;9.90;;;5.00;99.00;;;;;;4600131;31;20067;-73
2023/01/23 14:25:17;;;;;;;14.73;10.80;;;5.00;99.20;;;;;;4619932;30;20059;-73
2023/01/23 14:27:47;;;;;;;18.75;14.70;;;5.00;99.40;;;;;;4618978;31;20063;-73
2023/01/23 14:30:25;;;;;;;17.85;13.10;;;4.90;99.10;;;;;;4642021;30;20523;-73
2023/01/23 14:32:53;;;;;;;16.00;13.20;;;4.90;99.50;;;;;;4705078;29;20471;-73
2023/01/23 14:35:26;;;;;;;14.35;11.70;;;5.20;99.20;;;;;;4804750;29;20495;-73
2023/01/23 14:37:56;;;;;;;15.35;11.93;;;4.90;99.30;;;;;;4852653;29;20049;-73
2023/01/23 14:40:23;;;;;;;18.60;13.63;;;5.10;99.50;;;;;;4861670;29;20049;-73
2023/01/23 14:42:59;;;;;;;17.45;12.32;;;5.70;99.60;;;;;;4864712;29;20518;-73
2023/01/23 14:45:29;;;;;;;15.52;11.25;;;5.20;99.40;;;;;;4864749;29;20514;-73
2023/01/23 14:47:59;;;;;;;16.55;11.77;;;6.80;99.60;;;;;;4857226;29;20046;-73
2023/01/23 14:50:32;;;;;;;16.25;12.68;;;5.10;99.20;;;;;;4841209;29;20054;-73
2023/01/23 14:53:02;;;;;;;17.50;12.55;;;5.10;99.20;;;;;;4851751;29;20135;-73
2023/01/23 14:55:31;;;;;;;15.57;11.80;;;5.20;99.60;;;;;;4841135;29;20057;-73
2023/01/23 14:57:59;;;;;;;17.85;12.73;;;5.10;99.40;;;;;;4855518;29;20072;-74
2023/01/23 15:00:27;;;;;;;14.68;11.00;;;5.40;99.20;;;;;;4854670;29;20499;-73
2023/01/23 15:02:55;;;;;;;14.82;12.30;;;5.50;99.10;;;;;;4858772;29;20061;-73
2023/01/23 15:05:23;;;;;;;18.85;14.65;;;6.50;99.20;;;;;;4854834;29;20061;-74
2023/01/23 15:08:02;;;;;;;16.63;11.40;;;5.70;98.70;;;;;;4856100;29;20074;-73
2023/01/23 15:10:50;;;;;;;15.65;10.90;;;5.70;98.70;;;;;;4840067;29;20053;-73
2023/01/23 15:13:33;;;;;;;13.50;9.75;;;5.60;98.80;;;;;;4848531;29;20059;-73
2023/01/23 15:16:02;;;;;;;14.10;10.40;;;5.50;98.60;;;;;;4855353;29;20387;-73
2023/01/23 15:18:34;;;;;;;14.32;10.90;;;7.60;99.30;;;;;;4857084;29;20072;-73
2023/01/23 15:21:06;;;;;;;12.82;9.73;;;5.40;98.70;;;;;;4839922;29;20080;-73
2023/01/23 15:23:36;;;;;;;13.15;10.38;;;5.30;98.60;;;;;;4855341;29;20710;-73
2023/01/23 15:26:18;;;;;;;15.10;11.30;;;6.40;99.00;;;;;;4874139;29;20048;-73
2023/01/23 15:29:20;;;;;;;15.90;10.68;;;5.10;98.70;;;;;;4873786;29;20045;-73
2023/01/23 15:31:53;;;;;;;14.63;10.82;;;5.00;98.70;;;;;;4858497;29;20061;-73
2023/01/23 15:34:26;;;;;;;15.45;11.05;;;5.00;98.90;;;;;;4839735;29;20049;-73
2023/01/23 15:36:57;;;;;;;13.77;9.73;;;4.90;99.00;;;;;;4862919;29;20775;-75
2023/01/23 15:39:31;;;;;;;14.10;10.25;;;4.90;99.10;;;;;;4859435;29;20045;-73
2023/01/23 15:42:04;;;;;;;13.73;10.65;;;4.80;99.10;;;;;;4863545;29;20104;-73
2023/01/23 15:44:31;;;;;;;14.02;10.07;;;4.70;99.10;;;;;;4873324;29;20116;-73
2023/01/23 15:47:03;;;;;;;11.73;9.52;;;4.70;99.20;;;;;;4857517;29;20077;-73
2023/01/23 15:49:31;;;;;;;14.18;11.40;;;4.80;99.20;;;;;;4858789;29;20049;-73
2023/01/23 15:52:01;;;;;;;22.42;10.38;;;4.70;99.10;;;;;;4854512;29;20149;-73
2023/01/23 15:54:34;;;;;;;13.40;10.57;;;4.60;99.20;;;;;;4854938;29;20059;-73
2023/01/23 15:57:03;;;;;;;13.27;9.80;;;4.60;99.30;;;;;;4854826;29;20518;-73
2023/01/23 15:59:35;;;;;;;12.30;9.60;;;4.50;99.30;;;;;;4854803;29;20111;-73
2023/01/23 16:02:04;;;;;;;11.13;9.75;;;4.40;99.60;;;;;;4842026;29;20053;-74
2023/01/23 16:04:32;;;;;;;12.38;9.65;;;4.30;99.50;;;;;;4839605;29;20056;-73
2023/01/23 16:07:02;;;;;;;14.63;10.45;;;4.20;99.70;;;;;;4839968;29;20053;-73
2023/01/23 16:09:31;;;;;;;23.00;16.33;;;5.20;99.90;;;;;;4839509;29;20057;-73
2023/01/23 16:11:59;;;;;;;17.38;12.50;;;4.20;99.70;;;;;;4848858;29;20103;-74
2023/01/23 16:14:26;;;;;;;15.50;10.45;;;4.20;99.70;;;;;;4862126;29;20516;-74
2023/01/23 16:16:54;;;;;;;14.13;10.38;;;4.20;99.70;;;;;;4865334;29;20726;-73
2023/01/23 16:19:30;;;;;;;12.63;9.77;;;4.20;99.80;;;;;;4844918;29;20050;-74
2023/01/23 16:21:57;;;;;;;11.45;9.38;;;4.10;99.90;;;;;;4865013;29;20049;-74
2023/01/23 16:24:35;;;;;;;13.02;10.50;;;5.20;99.90;;;;;;4834503;29;20132;-75
2023/01/23 16:27:03;;;;;;;12.48;9.55;;;6.00;99.90;;;;;;4847225;29;20117;-74
2023/01/23 16:29:32;;;;;;;11.93;9.27;;;4.20;99.90;;;;;;4863080;29;20038;-74
2023/01/23 16:32:00;;;;;;;11.02;8.88;;;4.20;99.80;;;;;;4849340;29;20049;-73
2023/01/23 16:34:28;;;;;;;11.90;9.00;;;4.30;99.90;;;;;;4860343;29;20056;-75
2023/01/23 16:36:57;;;;;;;12.77;8.95;;;4.10;99.80;;;;;;4862544;29;20439;-73
2023/01/23 16:39:26;;;;;;;11.60;9.55;;;4.20;99.90;;;;;;4862085;29;20514;-73
2023/01/23 16:41:53;;;;;;;12.70;9.98;;;4.20;99.80;;;;;;4835660;29;20084;-74
2023/01/23 16:44:22;;;;;;;11.05;8.82;;;5.40;99.90;;;;;;4846263;29;20050;-73
2023/01/23 16:46:51;;;;;;;12.60;9.30;;;4.10;99.90;;;;;;4864159;29;20057;-72
2023/01/23 16:49:19;;;;;;;14.00;9.13;;;4.40;99.90;;;;;;4851882;29;20160;-73
2023/01/23 16:51:54;;;;;;;12.07;9.10;;;4.20;99.80;;;;;;4851409;29;20041;-73
2023/01/23 16:54:22;;;;;;;13.80;9.85;;;4.20;99.80;;;;;;4862891;29;20422;-73
2023/01/23 16:56:50;;;;;;;14.10;10.18;;;4.20;99.90;;;;;;4838147;29;20084;-75
2023/01/23 16:59:25;;;;;;;11.77;8.75;;;4.20;99.80;;;;;;4853881;29;20076;-73
2023/01/23 17:01:52;;;;;;;13.20;9.93;;;4.30;99.80;;;;;;4853064;29;20045;-73
2023/01/23 17:04:20;;;;;;;11.80;8.95;;;4.20;99.70;;;;;;4850720;29;20070;-73
2023/01/23 17:06:48;;;;;;;12.50;9.90;;;4.30;99.80;;;;;;4849616;29;20045;-73
2023/01/23 17:09:16;;;;;;;10.63;8.30;;;4.20;99.70;;;;;;4857157;29;20431;-72
2023/01/23 17:11:51;;;;;;;12.02;8.73;;;4.20;99.80;;;;;;4857139;29;20092;-73
2023/01/23 17:14:29;;;;;;;10.30;8.48;;;6.40;99.90;;;;;;4836203;29;20526;-73
2023/01/23 17:17:06;;;;;;;10.50;8.25;;;4.20;99.80;;;;;;4857701;29;20053;-73
2023/01/23 17:19:36;;;;;;;11.52;9.45;;;4.10;99.70;;;;;;4857190;29;20113;-73
2023/01/23 17:22:05;;;;;;;12.32;9.82;;;4.10;99.80;;;;;;4844008;29;20059;-73
2023/01/23 17:24:32;;;;;;;11.27;8.80;;;4.00;99.80;;;;;;4866649;29;20120;-72
2023/01/23 17:27:00;;;;;;;10.52;8.70;;;3.90;99.90;;;;;;4856362;29;20057;-73
2023/01/23 17:29:27;;;;;;;9.75;7.85;;;4.80;99.90;;;;;;4867185;29;20137;-74
2023/01/23 17:31:55;;;;;;;11.25;8.50;;;3.80;99.90;;;;;;4866399;29;20039;-73
2023/01/23 17:34:24;;;;;;;12.60;9.77;;;3.80;99.90;;;;;;4858807;29;20601;-73
2023/01/23 17:36:53;;;;;;;11.20;9.55;;;3.60;99.90;;;;;;4858920;29;20108;-73
2023/01/23 17:39:20;;;;;;;12.52;8.88;;;3.60;99.90;;;;;;4869666;29;20072;-73
2023/01/23 17:41:50;;;;;;;11.07;8.90;;;3.60;99.90;;;;;;4859009;29;20049;-73
2023/01/23 17:44:17;;;;;;;11.60;8.95;;;3.60;99.90;;;;;;4841537;29;20129;-74
2023/01/23 17:46:45;;;;;;;14.48;10.23;;;3.60;99.90;;;;;;4860160;29;20046;-72
2023/01/23 17:49:29;;;;;;;14.82;9.57;;;3.60;99.90;;;;;;4856150;29;20065;-73
2023/01/23 17:51:57;;;;;;;14.13;9.90;;;3.60;99.90;;;;;;4842001;29;20049;-72
2023/01/23 17:54:27;;;;;;;14.60;10.10;;;3.60;99.90;;;;;;4875755;29;20600;-72
2023/01/23 17:56:55;;;;;;;13.63;10.98;;;3.70;99.90;;;;;;4875267;29;20080;-73
2023/01/23 17:59:22;;;;;;;12.00;9.40;;;4.40;99.90;;;;;;4876398;29;20049;-72
2023/01/23 18:01:50;;;;;;;17.17;10.50;;;4.30;99.90;;;;;;4874879;29;20045;-73
2023/01/23 18:04:20;;;;;;;13.68;10.27;;;3.60;99.90;;;;;;4857827;29;20045;-73
2023/01/23 18:06:47;;;;;;;13.15;9.85;;;3.60;99.90;;;;;;4850640;29;20056;-72
2023/01/23 18:09:16;;;;;;;14.20;11.02;;;4.10;99.90;;;;;;4866389;29;20048;-72
2023/01/23 18:11:53;;;;;;;13.45;10.70;;;3.60;99.90;;;;;;4872260;29;20055;-72
2023/01/23 18:14:29;;;;;;;11.82;9.75;;;4.50;99.90;;;;;;4851009;29;20050;-73
2023/01/23 18:16:57;;;;;;;12.43;9.80;;;3.70;99.90;;;;;;4856116;29;20054;-73
2023/01/23 18:19:26;;;;;;;12.85;9.90;;;5.20;99.90;;;;;;4840629;29;20053;-73
2023/01/23 18:21:55;;;;;;;14.93;11.77;;;3.70;99.90;;;;;;4855881;29;20052;-73
2023/01/23 18:24:26;;;;;;;12.77;10.98;;;3.90;99.90;;;;;;4874563;29;20049;-73
2023/01/23 18:27:24;;;;;;;14.68;11.20;;;3.80;99.90;;;;;;4865995;29;20053;-73
2023/01/23 18:30:26;;;;;;;11.90;9.65;;;3.80;99.90;;;;;;4840467;29;20077;-72
2023/01/23 18:32:59;;;;;;;13.63;10.20;;;3.80;99.90;;;;;;4859650;29;20140;-73
2023/01/23 18:36:00;;;;;;;14.40;10.13;;;4.00;99.90;;;;;;4857438;29;20140;-73